Time;durP1;ratioP1;P1;durP2;ratioP2;P2;SDS_P1;SDS_P2;PMS_P1;PMS_P2;Temp;Humidity;BMP_temperature;BMP_pressure;BME280_temperature;BME280_humidity;BME280_pressure;Samples;Min_cycle;Max_cycle;Signal;HPM_P1;HPM_P2
2023/06/28 00:02:20;;;;;;;15.93;8.82;;;22.90;99.90;;;;;;5045358;28;20044;-83
2023/06/28 00:05:25;;;;;;;11.35;8.10;;;22.90;99.90;;;;;;5042736;28;20403;-83
2023/06/28 00:08:28;;;;;;;13.18;8.02;;;22.90;99.90;;;;;;5051373;28;20403;-82
2023/06/28 00:11:32;;;;;;;12.25;8.10;;;22.90;99.90;;;;;;5050278;28;20051;-83
2023/06/28 00:14:36;;;;;;;11.43;7.63;;;22.90;99.90;;;;;;5051011;28;20056;-83
2023/06/28 00:17:40;;;;;;;11.20;8.35;;;22.90;99.90;;;;;;5050623;28;20060;-83
2023/06/28 00:20:45;;;;;;;11.23;8.60;;;22.90;99.90;;;;;;5050760;28;20056;-84
2023/06/28 00:23:48;;;;;;;14.15;8.45;;;22.80;99.90;;;;;;5051768;28;20048;-83
2023/06/28 00:26:52;;;;;;;11.93;8.02;;;22.70;99.90;;;;;;5051711;28;20281;-83
2023/06/28 00:29:57;;;;;;;10.63;7.30;;;22.60;99.90;;;;;;5049995;28;20052;-83
2023/06/28 00:33:03;;;;;;;9.90;7.32;;;22.60;99.90;;;;;;5049804;28;20072;-83
2023/06/28 00:36:07;;;;;;;10.60;7.70;;;22.50;99.90;;;;;;5050957;28;20059;-82
2023/06/28 00:39:11;;;;;;;12.35;7.72;;;22.50;99.90;;;;;;5051431;28;20123;-83
2023/06/28 00:42:15;;;;;;;12.25;7.68;;;22.40;99.90;;;;;;5038139;28;20497;-83
2023/06/28 00:45:19;;;;;;;16.55;9.07;;;22.40;99.90;;;;;;5050937;28;20167;-83
2023/06/28 00:48:23;;;;;;;11.75;8.90;;;22.30;99.90;;;;;;5050773;28;20495;-82
2023/06/28 00:51:30;;;;;;;12.77;9.10;;;22.30;99.90;;;;;;5050433;28;20044;-82
2023/06/28 00:54:35;;;;;;;13.18;8.57;;;22.30;99.90;;;;;;5050818;28;20494;-83
2023/06/28 00:57:39;;;;;;;14.35;8.23;;;22.10;99.90;;;;;;5050712;28;20388;-82
2023/06/28 01:00:45;;;;;;;11.88;8.77;;;22.00;99.90;;;;;;5050687;28;20052;-82
2023/06/28 01:03:50;;;;;;;11.88;8.73;;;21.90;99.90;;;;;;5050567;28;20051;-82
2023/06/28 01:06:59;;;;;;;12.10;8.77;;;21.80;99.90;;;;;;5050465;28;20063;-82
2023/06/28 01:10:04;;;;;;;11.60;8.52;;;21.80;99.90;;;;;;5050719;28;20040;-82
2023/06/28 01:13:09;;;;;;;11.73;9.45;;;21.80;99.90;;;;;;5037765;28;20507;-83
2023/06/28 01:16:13;;;;;;;14.75;9.63;;;21.80;99.90;;;;;;5050178;28;20052;-83
2023/06/28 01:19:17;;;;;;;12.85;9.30;;;21.80;99.90;;;;;;5039667;28;20052;-83
2023/06/28 01:22:24;;;;;;;17.77;9.43;;;21.70;99.90;;;;;;5049046;28;20526;-82
2023/06/28 01:25:29;;;;;;;12.98;8.98;;;21.70;99.90;;;;;;5049634;28;20048;-83
2023/06/28 01:28:33;;;;;;;11.85;9.93;;;21.70;99.90;;;;;;5049189;28;20068;-82
2023/06/28 01:31:38;;;;;;;12.23;8.60;;;21.70;99.90;;;;;;5049201;28;20044;-82
2023/06/28 01:34:42;;;;;;;11.85;8.57;;;21.80;99.90;;;;;;5050474;28;20526;-82
2023/06/28 01:37:47;;;;;;;13.60;9.20;;;21.70;99.90;;;;;;5050563;28;20197;-83
2023/06/28 01:40:52;;;;;;;13.02;9.25;;;21.70;99.90;;;;;;5049457;28;20594;-82
2023/06/28 01:43:56;;;;;;;14.30;8.93;;;21.70;99.90;;;;;;5050621;28;20411;-83
2023/06/28 01:47:01;;;;;;;15.65;8.75;;;21.60;99.90;;;;;;5053423;28;20052;-82
2023/06/28 01:50:07;;;;;;;16.83;9.75;;;21.50;99.90;;;;;;5053073;28;20052;-82
2023/06/28 01:53:13;;;;;;;12.23;9.15;;;21.40;99.90;;;;;;5054007;28;20048;-83
2023/06/28 01:56:17;;;;;;;15.70;9.90;;;21.40;99.90;;;;;;5054266;28;20529;-82
2023/06/28 01:59:21;;;;;;;11.05;9.43;;;21.40;99.90;;;;;;5052855;28;20056;-82
2023/06/28 02:02:25;;;;;;;12.32;9.93;;;21.40;99.90;;;;;;5053557;28;20040;-82
2023/06/28 02:05:29;;;;;;;17.80;11.30;;;21.30;99.90;;;;;;5053146;28;20044;-83
2023/06/28 02:08:32;;;;;;;14.02;9.63;;;21.30;99.90;;;;;;5053409;28;20040;-84
2023/06/28 02:11:36;;;;;;;13.90;10.05;;;21.20;99.90;;;;;;5053122;28;20048;-83
2023/06/28 02:14:40;;;;;;;15.52;9.02;;;21.20;99.90;;;;;;5053526;28;20048;-82
2023/06/28 02:17:45;;;;;;;13.10;9.43;;;21.10;99.90;;;;;;5052803;28;20060;-82
2023/06/28 02:20:48;;;;;;;12.68;9.18;;;21.10;99.90;;;;;;5052778;28;20044;-82
2023/06/28 02:23:52;;;;;;;12.63;8.70;;;21.00;99.90;;;;;;5052708;28;20195;-82
2023/06/28 02:26:57;;;;;;;11.88;8.45;;;21.00;99.90;;;;;;5053182;28;20051;-82
2023/06/28 02:30:01;;;;;;;14.85;8.65;;;20.90;99.90;;;;;;5051957;28;20040;-82
2023/06/28 02:33:06;;;;;;;12.70;8.07;;;20.80;99.90;;;;;;5044108;28;20047;-82
2023/06/28 02:36:09;;;;;;;12.00;8.18;;;20.70;99.90;;;;;;5039450;28;20052;-82
2023/06/28 02:39:13;;;;;;;14.00;9.38;;;20.60;99.90;;;;;;5052520;28;20039;-82
2023/06/28 02:42:18;;;;;;;14.05;9.30;;;20.50;99.90;;;;;;5052787;28;20063;-82
2023/06/28 02:45:22;;;;;;;15.38;9.43;;;20.40;99.90;;;;;;5052666;28;20523;-82
2023/06/28 02:48:26;;;;;;;13.68;9.50;;;20.40;99.90;;;;;;5053210;28;20522;-82
2023/06/28 02:51:30;;;;;;;13.63;9.07;;;20.30;99.90;;;;;;5051816;28;20044;-81
2023/06/28 02:54:37;;;;;;;12.35;8.57;;;20.30;99.90;;;;;;5052548;28;20391;-81
2023/06/28 02:57:42;;;;;;;13.77;8.73;;;20.20;99.90;;;;;;5051203;28;20411;-81
2023/06/28 03:00:50;;;;;;;17.13;9.50;;;19.90;99.90;;;;;;5051975;28;20056;-81
2023/06/28 03:03:55;;;;;;;14.15;9.70;;;19.80;99.90;;;;;;5040320;28;20045;-82
2023/06/28 03:06:59;;;;;;;14.82;10.35;;;19.70;99.90;;;;;;5052852;28;20518;-82
2023/06/28 03:10:03;;;;;;;15.25;10.57;;;19.70;99.90;;;;;;5051536;28;20047;-82
2023/06/28 03:13:09;;;;;;;15.98;11.20;;;19.70;99.90;;;;;;5051441;28;20614;-81
2023/06/28 03:16:13;;;;;;;18.85;11.52;;;19.80;99.90;;;;;;5051794;28;20051;-81
2023/06/28 03:19:17;;;;;;;18.60;11.18;;;19.90;99.90;;;;;;5051595;28;20044;-81
2023/06/28 03:22:21;;;;;;;16.10;11.20;;;19.90;99.90;;;;;;5050862;28;20055;-81
2023/06/28 03:25:25;;;;;;;18.77;11.32;;;19.90;99.90;;;;;;5051688;28;20036;-82
2023/06/28 03:28:29;;;;;;;21.40;11.05;;;19.90;99.90;;;;;;5051496;28;20083;-82
2023/06/28 03:31:33;;;;;;;16.40;10.63;;;19.90;99.90;;;;;;5050695;28;20051;-82
2023/06/28 03:34:39;;;;;;;20.05;11.43;;;19.90;99.90;;;;;;5052303;28;20039;-82
2023/06/28 03:37:54;;;;;;;23.38;11.65;;;19.80;99.90;;;;;;5052124;28;20491;-82
2023/06/28 03:40:58;;;;;;;22.02;11.23;;;19.80;99.90;;;;;;5050928;28;20036;-82
2023/06/28 03:44:02;;;;;;;16.33;11.13;;;19.80;99.90;;;;;;5052063;28;20491;-81
2023/06/28 03:47:07;;;;;;;15.98;11.48;;;19.80;99.90;;;;;;5036050;28;20049;-82
2023/06/28 03:50:13;;;;;;;15.48;10.88;;;19.90;99.90;;;;;;5042432;28;20068;-82
2023/06/28 03:53:16;;;;;;;16.45;9.63;;;19.80;99.90;;;;;;5050600;28;20044;-82
2023/06/28 03:56:20;;;;;;;16.90;10.00;;;19.80;99.90;;;;;;5051209;28;20071;-82
2023/06/28 03:59:24;;;;;;;12.80;8.88;;;20.00;99.90;;;;;;5039497;28;20076;-82
2023/06/28 04:02:28;;;;;;;13.40;9.18;;;20.10;99.90;;;;;;5050902;28;20052;-81
2023/06/28 04:05:32;;;;;;;16.60;9.55;;;20.20;99.90;;;;;;5051813;28;20040;-81
2023/06/28 04:08:36;;;;;;;15.65;9.43;;;20.30;99.90;;;;;;5051653;28;20063;-81
2023/06/28 04:11:40;;;;;;;14.18;9.35;;;20.40;99.90;;;;;;5051209;28;20590;-81
2023/06/28 04:14:44;;;;;;;14.13;9.20;;;20.30;99.90;;;;;;5051453;28;20044;-83
2023/06/28 04:17:48;;;;;;;14.65;9.00;;;20.40;99.90;;;;;;5050697;28;20047;-83
2023/06/28 04:20:52;;;;;;;17.38;8.88;;;20.40;99.90;;;;;;5051086;28;20051;-83
2023/06/28 04:23:56;;;;;;;14.13;8.40;;;20.50;99.90;;;;;;5050887;28;20040;-82
2023/06/28 04:27:00;;;;;;;12.75;8.38;;;20.70;99.90;;;;;;5051048;28;20506;-82
2023/06/28 04:30:05;;;;;;;10.15;7.63;;;20.80;99.90;;;;;;5051085;28;20055;-82
2023/06/28 04:33:09;;;;;;;11.80;7.53;;;21.30;99.90;;;;;;5049768;28;20055;-82
2023/06/28 04:36:13;;;;;;;13.45;7.68;;;22.30;99.90;;;;;;5050209;28;20072;-82
2023/06/28 04:39:20;;;;;;;14.93;8.63;;;23.40;99.90;;;;;;5051169;28;20388;-82
2023/06/28 04:42:24;;;;;;;14.63;8.88;;;24.30;99.90;;;;;;5049382;28;20056;-82
2023/06/28 04:45:36;;;;;;;13.88;8.70;;;25.20;99.90;;;;;;5050938;28;20048;-82
2023/06/28 04:48:42;;;;;;;16.90;8.18;;;24.80;99.90;;;;;;5050408;28;20040;-82
2023/06/28 04:51:46;;;;;;;11.43;8.55;;;25.20;99.90;;;;;;5037771;28;20411;-82
2023/06/28 04:54:50;;;;;;;14.13;8.85;;;25.80;99.90;;;;;;5050937;28;20039;-82
2023/06/28 04:57:54;;;;;;;11.32;8.43;;;26.50;99.90;;;;;;5050051;28;20056;-82
2023/06/28 05:00:58;;;;;;;12.00;8.48;;;27.10;99.90;;;;;;5050675;28;20127;-82
2023/06/28 05:04:03;;;;;;;19.13;9.18;;;27.30;99.90;;;;;;5038711;28;20392;-82
2023/06/28 05:07:09;;;;;;;13.68;8.13;;;27.70;99.90;;;;;;5050020;28;20399;-82
2023/06/28 05:10:13;;;;;;;13.30;7.97;;;28.30;99.90;;;;;;5050448;28;20036;-82
2023/06/28 05:13:18;;;;;;;13.98;7.22;;;28.90;99.90;;;;;;5050000;28;20060;-82
2023/06/28 05:16:21;;;;;;;16.55;7.53;;;29.40;99.90;;;;;;5049710;28;20051;-82
2023/06/28 05:19:26;;;;;;;19.25;9.43;;;29.50;99.90;;;;;;5050218;28;20040;-82
2023/06/28 05:22:30;;;;;;;24.48;11.63;;;29.90;99.90;;;;;;5049881;28;20494;-82
2023/06/28 05:25:34;;;;;;;18.00;11.18;;;30.40;99.90;;;;;;5051468;28;20112;-82
2023/06/28 05:28:38;;;;;;;17.42;10.48;;;30.60;99.90;;;;;;5051265;28;20115;-82
2023/06/28 05:31:42;;;;;;;20.90;10.25;;;30.70;99.90;;;;;;5049052;28;20047;-82
2023/06/28 05:34:46;;;;;;;14.30;9.40;;;30.60;99.90;;;;;;5050647;28;20047;-82
2023/06/28 05:37:50;;;;;;;10.27;8.10;;;28.90;99.90;;;;;;5049629;28;20067;-82
2023/06/28 05:40:55;;;;;;;10.10;8.07;;;27.40;99.90;;;;;;5050209;28;20052;-82
2023/06/28 05:43:59;;;;;;;12.10;8.30;;;28.10;99.90;;;;;;5049905;28;20056;-82
2023/06/28 05:47:03;;;;;;;12.63;8.70;;;29.10;99.90;;;;;;5049948;28;20313;-82
2023/06/28 05:50:10;;;;;;;13.00;8.40;;;29.80;99.90;;;;;;5049269;28;20502;-82
2023/06/28 05:53:14;;;;;;;12.68;8.55;;;29.90;99.90;;;;;;5049659;28;20396;-82
2023/06/28 05:56:19;;;;;;;13.82;8.13;;;29.30;99.90;;;;;;5050198;28;20052;-81
2023/06/28 05:59:23;;;;;;;11.23;7.25;;;29.10;99.90;;;;;;5049951;28;20052;-82
2023/06/28 06:02:28;;;;;;;14.30;7.43;;;29.00;99.90;;;;;;5049380;28;20115;-82
2023/06/28 06:05:33;;;;;;;10.80;7.82;;;29.20;99.90;;;;;;5049411;28;20048;-81
2023/06/28 06:08:37;;;;;;;9.07;7.50;;;28.90;99.90;;;;;;5049788;28;20044;-82
2023/06/28 06:11:41;;;;;;;11.98;8.05;;;28.70;99.90;;;;;;5048079;28;20040;-82
2023/06/28 06:14:46;;;;;;;12.07;7.53;;;27.10;99.90;;;;;;5049619;28;20040;-78
2023/06/28 06:17:51;;;;;;;13.48;7.95;;;27.30;99.90;;;;;;5047587;28;20052;-82
2023/06/28 06:20:55;;;;;;;15.35;8.55;;;27.10;99.90;;;;;;5042575;28;20043;-81
2023/06/28 06:23:59;;;;;;;11.75;7.25;;;27.00;99.90;;;;;;5024206;28;20057;-81
2023/06/28 06:27:04;;;;;;;12.82;8.38;;;26.80;99.90;;;;;;5011476;28;20041;-80
2023/06/28 06:30:11;;;;;;;12.20;9.23;;;27.70;99.90;;;;;;5027568;28;20044;-79
2023/06/28 06:33:15;;;;;;;30.00;20.10;;;27.10;99.90;;;;;;5012429;28;20495;-81
2023/06/28 06:36:19;;;;;;;24.80;15.95;;;26.70;99.90;;;;;;5031507;28;20044;-81
2023/06/28 06:39:23;;;;;;;21.85;14.00;;;27.30;99.90;;;;;;5032981;28;20041;-82
2023/06/28 06:42:27;;;;;;;26.27;15.00;;;28.60;99.90;;;;;;5025505;28;20506;-82
2023/06/28 06:45:31;;;;;;;29.58;18.73;;;30.00;99.90;;;;;;5032326;28;20056;-82
2023/06/28 06:48:37;;;;;;;26.83;18.05;;;30.60;99.90;;;;;;5012854;28;20044;-82
2023/06/28 06:51:40;;;;;;;20.48;13.23;;;31.00;99.90;;;;;;5024284;28;20148;-81
2023/06/28 06:54:44;;;;;;;20.33;12.48;;;31.70;99.90;;;;;;5032550;28;20057;-81
2023/06/28 06:57:48;;;;;;;17.92;13.38;;;30.00;99.90;;;;;;5022717;28;20064;-82
2023/06/28 07:00:53;;;;;;;20.83;10.90;;;30.50;99.90;;;;;;5031026;28;20068;-80
2023/06/28 07:03:57;;;;;;;17.13;11.60;;;31.10;99.90;;;;;;5028194;28;20052;-82
2023/06/28 07:07:01;;;;;;;15.50;8.82;;;31.90;99.90;;;;;;5019093;28;20389;-81
2023/06/28 07:10:06;;;;;;;9.60;8.40;;;32.70;99.90;;;;;;5015130;28;20049;-79
2023/06/28 07:13:14;;;;;;;12.93;8.90;;;32.70;99.00;;;;;;5026615;28;20049;-82
2023/06/28 07:16:18;;;;;;;14.07;8.13;;;32.30;99.20;;;;;;5022580;28;20068;-83
2023/06/28 07:19:22;;;;;;;17.55;9.13;;;32.90;99.10;;;;;;5012088;28;20444;-83
2023/06/28 07:22:27;;;;;;;12.70;7.97;;;31.70;99.80;;;;;;5018606;28;20397;-82
2023/06/28 07:25:32;;;;;;;11.20;7.32;;;32.80;99.00;;;;;;5030676;28;20044;-81
2023/06/28 07:28:36;;;;;;;11.77;7.82;;;32.90;98.80;;;;;;5018898;28;20048;-81
2023/06/28 07:31:40;;;;;;;15.10;8.18;;;32.20;98.70;;;;;;5026157;28;20503;-81
2023/06/28 07:34:44;;;;;;;12.32;7.68;;;33.00;98.50;;;;;;5025486;28;20051;-80
2023/06/28 07:37:48;;;;;;;13.02;7.50;;;32.90;98.90;;;;;;5010916;28;20048;-82
2023/06/28 07:40:53;;;;;;;14.35;8.27;;;32.10;99.90;;;;;;5033049;28;20055;-81
2023/06/28 07:43:57;;;;;;;15.10;7.43;;;33.20;98.80;;;;;;5034481;28;20052;-80
2023/06/28 07:47:01;;;;;;;15.43;7.10;;;32.10;99.00;;;;;;5025998;28;20053;-79
2023/06/28 07:50:06;;;;;;;11.55;7.20;;;29.90;99.90;;;;;;5030787;28;20037;-79
2023/06/28 07:53:10;;;;;;;14.82;7.40;;;30.90;99.90;;;;;;5031383;28;20495;-80
2023/06/28 07:56:14;;;;;;;11.98;6.53;;;30.90;99.90;;;;;;5030952;28;20043;-78
2023/06/28 07:59:19;;;;;;;10.82;6.40;;;32.00;99.90;;;;;;5015742;28;20064;-81
2023/06/28 08:02:24;;;;;;;17.15;7.15;;;33.50;98.40;;;;;;5026607;28;20064;-81
2023/06/28 08:05:29;;;;;;;8.07;6.32;;;33.40;98.30;;;;;;5031534;28;20507;-81
2023/06/28 08:08:32;;;;;;;13.77;6.25;;;35.10;97.20;;;;;;5024065;28;20064;-80
2023/06/28 08:11:36;;;;;;;11.48;6.63;;;34.80;96.10;;;;;;5028978;28;20052;-81
2023/06/28 08:14:42;;;;;;;11.65;6.70;;;35.10;96.20;;;;;;5025804;28;20041;-80
2023/06/28 08:17:47;;;;;;;9.25;5.72;;;36.10;95.60;;;;;;5025663;28;20053;-81
2023/06/28 08:20:53;;;;;;;13.20;7.13;;;37.10;94.30;;;;;;5023796;28;20041;-81
2023/06/28 08:23:57;;;;;;;9.63;6.28;;;37.90;94.00;;;;;;5013655;28;20063;-80
2023/06/28 08:27:01;;;;;;;11.38;7.03;;;38.20;93.80;;;;;;5010850;28;20048;-81
2023/06/28 08:30:05;;;;;;;10.20;6.28;;;39.20;93.00;;;;;;5031239;28;20044;-81
2023/06/28 08:33:09;;;;;;;12.43;7.28;;;40.40;91.80;;;;;;5023232;28;20048;-81
2023/06/28 08:36:13;;;;;;;9.45;6.03;;;40.90;91.30;;;;;;5030859;28;20384;-81
2023/06/28 08:39:17;;;;;;;11.85;6.90;;;41.70;90.20;;;;;;5020903;28;20388;-81
2023/06/28 08:42:22;;;;;;;10.45;6.38;;;41.30;90.00;;;;;;5038688;28;20052;-80
2023/06/28 08:45:26;;;;;;;8.65;6.22;;;40.50;89.70;;;;;;5034333;28;20216;-81
2023/06/28 08:48:30;;;;;;;11.50;5.90;;;40.80;88.60;;;;;;5012565;28;20044;-80
2023/06/28 08:51:34;;;;;;;11.38;6.22;;;41.90;86.30;;;;;;5029791;28;20049;-81
2023/06/28 08:54:39;;;;;;;8.45;5.68;;;42.30;85.20;;;;;;5027687;28;20052;-81
2023/06/28 08:57:43;;;;;;;10.18;5.30;;;42.90;83.80;;;;;;5027523;28;20056;-81
2023/06/28 09:00:47;;;;;;;7.00;5.47;;;43.30;82.60;;;;;;5026404;28;20044;-83
2023/06/28 09:03:51;;;;;;;9.02;5.60;;;43.90;82.50;;;;;;5030353;28;20049;-84
2023/06/28 09:06:56;;;;;;;8.23;5.45;;;44.20;82.10;;;;;;5035639;28;20487;-84
2023/06/28 09:10:01;;;;;;;12.18;5.63;;;45.00;79.90;;;;;;5028093;28;20040;-84
2023/06/28 09:13:05;;;;;;;7.45;4.93;;;45.80;78.70;;;;;;5027559;28;20056;-84
2023/06/28 09:16:10;;;;;;;7.70;5.00;;;46.60;75.80;;;;;;5029239;28;20072;-83
2023/06/28 09:19:14;;;;;;;10.27;4.88;;;46.70;75.50;;;;;;5026358;28;20056;-82
2023/06/28 09:22:18;;;;;;;9.93;5.38;;;46.60;74.40;;;;;;5029182;28;20048;-82
2023/06/28 09:25:24;;;;;;;12.45;4.75;;;45.70;73.40;;;;;;5018803;28;20048;-82
2023/06/28 09:28:33;;;;;;;11.48;4.88;;;45.90;74.50;;;;;;5027271;28;20060;-82
2023/06/28 09:31:42;;;;;;;6.70;4.82;;;46.50;73.90;;;;;;5027890;28;20040;-82
2023/06/28 09:34:46;;;;;;;6.07;4.60;;;46.40;72.90;;;;;;5041028;28;20124;-84
2023/06/28 09:37:58;;;;;;;11.73;5.18;;;46.60;72.80;;;;;;5018971;28;20044;-84
2023/06/28 09:41:04;;;;;;;8.70;5.70;;;46.00;74.60;;;;;;5034944;28;20401;-84
2023/06/28 09:44:10;;;;;;;7.53;4.50;;;46.00;73.60;;;;;;5024746;28;20040;-84
2023/06/28 09:47:14;;;;;;;9.75;4.80;;;45.60;74.30;;;;;;5025579;28;20052;-82
2023/06/28 09:50:18;;;;;;;8.70;4.93;;;46.70;72.50;;;;;;5017758;28;20515;-84
2023/06/28 09:53:22;;;;;;;7.25;5.10;;;47.50;71.50;;;;;;5019962;28;20369;-83
2023/06/28 09:56:37;;;;;;;6.05;4.45;;;46.90;71.00;;;;;;5027198;28;20059;-85
2023/06/28 09:59:43;;;;;;;5.22;4.72;;;45.80;72.20;;;;;;5024453;28;20065;-82
2023/06/28 10:02:47;;;;;;;8.73;4.25;;;46.40;72.10;;;;;;5019707;28;20053;-86
2023/06/28 10:05:56;;;;;;;5.93;4.68;;;47.60;70.30;;;;;;5023143;28;20048;-86
2023/06/28 10:09:01;;;;;;;9.13;5.25;;;48.00;70.90;;;;;;5028685;28;20068;-86
2023/06/28 10:12:15;;;;;;;6.55;4.93;;;48.00;70.20;;;;;;5026911;28;20544;-82
2023/06/28 10:15:22;;;;;;;7.97;4.60;;;48.50;70.00;;;;;;5015683;28;20826;-83
2023/06/28 10:18:27;;;;;;;9.43;4.63;;;48.30;68.80;;;;;;5033441;28;20064;-84
2023/06/28 10:21:31;;;;;;;7.47;5.13;;;48.40;67.70;;;;;;5039763;28;20049;-84
2023/06/28 10:24:36;;;;;;;6.82;4.65;;;48.70;67.60;;;;;;5030294;28;20048;-85
2023/06/28 10:27:41;;;;;;;8.35;4.65;;;49.00;67.10;;;;;;5026141;28;20048;-83
2023/06/28 10:30:45;;;;;;;5.60;4.47;;;48.70;66.90;;;;;;5031630;28;20064;-83
2023/06/28 10:33:50;;;;;;;7.05;4.18;;;48.70;67.50;;;;;;5015550;28;20048;-84
2023/06/28 10:36:56;;;;;;;7.75;4.65;;;47.30;67.20;;;;;;5033519;28;20396;-86
2023/06/28 10:40:00;;;;;;;9.77;5.18;;;46.90;67.40;;;;;;5030436;28;20052;-85
2023/06/28 10:43:05;;;;;;;6.57;4.90;;;46.90;67.90;;;;;;5030621;28;20048;-84
2023/06/28 10:46:26;;;;;;;6.35;5.05;;;46.50;67.70;;;;;;5028576;28;20048;-85
2023/06/28 10:49:34;;;;;;;9.98;5.10;;;44.70;68.70;;;;;;5015212;28;20036;-84
2023/06/28 10:52:52;;;;;;;8.27;5.43;;;43.90;69.50;;;;;;5029802;28;20384;-82
2023/06/28 10:56:11;;;;;;;6.47;5.22;;;40.30;73.70;;;;;;5026947;28;20044;-83
2023/06/28 10:59:16;;;;;;;9.70;5.68;;;39.60;75.80;;;;;;5027281;28;20388;-82
2023/06/28 11:02:54;;;;;;;9.57;6.43;;;38.50;77.30;;;;;;5026969;28;20416;-80
2023/06/28 11:05:58;;;;;;;8.82;5.75;;;37.70;77.60;;;;;;5027763;28;20060;-81
2023/06/28 11:09:13;;;;;;;10.23;5.90;;;38.70;77.40;;;;;;5029593;28;20044;-81
2023/06/28 11:12:19;;;;;;;8.95;6.88;;;39.30;77.70;;;;;;5024733;28;20056;-79
2023/06/28 11:15:28;;;;;;;9.30;5.53;;;38.10;77.30;;;;;;5032151;28;20048;-79
2023/06/28 11:18:32;;;;;;;6.53;5.28;;;38.70;77.70;;;;;;5025891;28;20484;-79
2023/06/28 11:21:39;;;;;;;14.32;5.05;;;40.10;77.40;;;;;;5028908;28;20052;-79
2023/06/28 11:24:44;;;;;;;8.73;5.03;;;42.00;74.00;;;;;;5025469;28;20048;-80
2023/06/28 11:27:49;;;;;;;6.10;5.00;;;43.30;72.70;;;;;;5045183;28;20045;-79
2023/06/28 11:30:54;;;;;;;13.18;6.03;;;41.70;72.70;;;;;;5024982;28;20037;-82
2023/06/28 11:33:58;;;;;;;11.90;5.57;;;39.50;76.60;;;;;;5030539;28;20420;-80
2023/06/28 11:37:03;;;;;;;9.68;6.10;;;38.70;79.50;;;;;;5029525;28;20056;-78
2023/06/28 11:40:07;;;;;;;8.32;6.28;;;35.10;81.50;;;;;;5026376;28;20048;-77
2023/06/28 11:43:11;;;;;;;11.00;6.72;;;35.80;83.00;;;;;;5025307;28;20523;-77
2023/06/28 11:46:18;;;;;;;10.77;5.82;;;33.30;85.10;;;;;;5026629;28;20049;-78
2023/06/28 11:49:22;;;;;;;9.65;7.25;;;35.10;83.70;;;;;;5021148;28;20407;-77
2023/06/28 11:52:26;;;;;;;9.45;6.35;;;35.60;84.20;;;;;;5032290;28;20048;-77
2023/06/28 11:55:30;;;;;;;14.32;7.20;;;35.30;83.50;;;;;;5028228;28;20052;-78
2023/06/28 11:58:36;;;;;;;9.77;6.63;;;34.20;83.40;;;;;;5022099;28;20057;-77
2023/06/28 12:01:40;;;;;;;14.63;6.80;;;34.70;84.70;;;;;;5019428;28;20050;-77
2023/06/28 12:04:55;;;;;;;15.07;7.30;;;34.80;85.10;;;;;;5030825;28;20056;-77
2023/06/28 12:07:59;;;;;;;10.00;6.80;;;35.20;87.50;;;;;;5016916;28;20053;-77
2023/06/28 12:11:12;;;;;;;9.73;6.68;;;35.40;86.50;;;;;;5024913;28;20045;-77
2023/06/28 12:14:16;;;;;;;13.05;6.57;;;35.60;86.80;;;;;;5024675;28;20057;-77
2023/06/28 12:17:20;;;;;;;8.77;5.95;;;36.00;86.70;;;;;;5024809;28;20045;-77
2023/06/28 12:20:25;;;;;;;9.52;6.03;;;36.20;84.80;;;;;;5022786;28;20045;-77
2023/06/28 12:23:29;;;;;;;10.68;6.43;;;36.20;85.00;;;;;;5011944;28;20049;-78
2023/06/28 12:26:33;;;;;;;9.75;6.57;;;36.50;83.90;;;;;;5009989;28;20123;-78
2023/06/28 12:29:37;;;;;;;11.68;7.05;;;37.20;82.60;;;;;;5011974;28;20041;-77
2023/06/28 12:32:43;;;;;;;10.15;6.70;;;37.90;80.90;;;;;;5030616;28;20045;-79
2023/06/28 12:35:47;;;;;;;8.32;6.43;;;38.60;81.80;;;;;;5033560;28;20048;-78
2023/06/28 12:38:51;;;;;;;9.85;6.38;;;39.40;81.10;;;;;;5028271;28;20052;-77
2023/06/28 12:42:04;;;;;;;9.68;5.88;;;39.90;79.00;;;;;;5012538;28;20049;-80
2023/06/28 12:45:09;;;;;;;10.13;6.45;;;39.90;78.20;;;;;;5024878;28;20081;-80
2023/06/28 12:48:16;;;;;;;8.20;5.72;;;40.20;77.50;;;;;;5014966;28;20044;-79
2023/06/28 12:51:20;;;;;;;8.75;6.10;;;40.70;76.00;;;;;;5011188;28;20049;-80
2023/06/28 12:54:24;;;;;;;11.43;6.40;;;40.70;75.40;;;;;;5011367;28;20041;-80
2023/06/28 12:57:28;;;;;;;11.77;6.32;;;39.70;77.00;;;;;;5017545;28;20048;-79
2023/06/28 13:00:32;;;;;;;12.82;6.95;;;39.80;79.00;;;;;;5028816;28;20507;-78
2023/06/28 13:03:36;;;;;;;11.27;6.72;;;40.10;78.80;;;;;;5015544;28;20049;-80
2023/06/28 13:06:40;;;;;;;9.68;7.20;;;39.80;82.00;;;;;;5010240;28;20045;-79
2023/06/28 13:09:44;;;;;;;11.75;6.68;;;40.10;81.50;;;;;;5015397;28;20045;-80
2023/06/28 13:12:48;;;;;;;9.05;6.40;;;39.30;80.70;;;;;;5029637;28;20056;-79
2023/06/28 13:15:52;;;;;;;8.77;5.35;;;39.60;81.20;;;;;;5019662;28;20045;-80
2023/06/28 13:18:57;;;;;;;9.45;5.90;;;39.60;82.80;;;;;;5010753;28;20049;-80
2023/06/28 13:22:02;;;;;;;9.25;5.68;;;39.80;81.00;;;;;;5010777;28;20492;-80
2023/06/28 13:25:06;;;;;;;9.32;5.63;;;40.10;80.90;;;;;;5027025;28;20060;-76
2023/06/28 13:28:10;;;;;;;8.45;5.75;;;40.00;80.40;;;;;;5017696;28;20389;-79
2023/06/28 13:31:14;;;;;;;11.27;5.68;;;39.90;79.80;;;;;;5014234;28;20040;-80
2023/06/28 13:34:19;;;;;;;11.77;6.47;;;39.70;81.30;;;;;;5013131;28;20401;-79
2023/06/28 13:37:23;;;;;;;12.23;6.65;;;39.50;80.80;;;;;;5028170;28;20048;-79
2023/06/28 13:40:27;;;;;;;11.75;5.85;;;39.00;81.20;;;;;;5030760;28;20120;-77
2023/06/28 13:43:31;;;;;;;7.38;6.07;;;38.60;81.90;;;;;;5026743;28;20052;-79
2023/06/28 13:46:35;;;;;;;11.75;6.13;;;38.40;82.50;;;;;;5022117;28;20530;-78
2023/06/28 13:49:39;;;;;;;9.35;6.38;;;38.30;82.60;;;;;;5041451;28;20048;-80
2023/06/28 13:52:43;;;;;;;8.18;5.65;;;38.20;80.90;;;;;;5033598;28;20499;-78
2023/06/28 13:55:47;;;;;;;11.45;5.93;;;38.40;82.00;;;;;;5034471;28;20408;-79
2023/06/28 13:58:51;;;;;;;6.53;4.93;;;38.80;82.20;;;;;;5022186;28;20053;-79
2023/06/28 14:01:55;;;;;;;8.48;5.55;;;38.60;82.20;;;;;;5026576;28;20044;-80
2023/06/28 14:04:58;;;;;;;8.60;5.05;;;38.20;82.70;;;;;;5024473;28;20056;-80
2023/06/28 14:08:02;;;;;;;6.72;5.22;;;38.10;81.50;;;;;;5022621;28;20044;-80
2023/06/28 14:11:06;;;;;;;5.97;5.05;;;37.70;83.10;;;;;;5022486;28;20037;-81
2023/06/28 14:14:10;;;;;;;7.60;4.68;;;37.00;83.60;;;;;;5018780;28;20492;-80
2023/06/28 14:17:14;;;;;;;9.55;6.75;;;37.10;85.70;;;;;;5029658;28;20048;-80
2023/06/28 14:20:18;;;;;;;6.82;5.18;;;37.40;83.40;;;;;;5031930;28;20048;-81
2023/06/28 14:23:22;;;;;;;7.05;5.47;;;37.10;85.00;;;;;;5031486;28;20040;-82
2023/06/28 14:26:26;;;;;;;10.52;6.05;;;36.90;85.40;;;;;;5023890;28;20103;-80
2023/06/28 14:29:30;;;;;;;10.48;6.30;;;36.80;85.50;;;;;;5019466;28;20397;-80
2023/06/28 14:32:34;;;;;;;25.98;6.75;;;36.90;83.80;;;;;;5013901;28;20061;-78
2023/06/28 14:35:38;;;;;;;8.02;5.60;;;37.10;85.20;;;;;;5014655;28;20372;-82
2023/06/28 14:38:42;;;;;;;8.85;5.07;;;37.10;87.30;;;;;;5015239;28;20586;-79
2023/06/28 14:41:46;;;;;;;6.20;5.32;;;37.20;85.30;;;;;;5016513;28;20061;-80
2023/06/28 14:44:50;;;;;;;7.22;5.30;;;36.80;84.90;;;;;;5013527;28;20048;-80
2023/06/28 14:47:55;;;;;;;8.48;6.13;;;35.80;87.80;;;;;;5026084;28;20045;-80
2023/06/28 14:50:59;;;;;;;10.77;6.00;;;35.80;87.10;;;;;;5030300;28;20052;-78
2023/06/28 14:54:03;;;;;;;8.02;5.90;;;35.80;86.90;;;;;;5012797;28;20053;-78
2023/06/28 14:57:07;;;;;;;10.80;6.70;;;35.80;85.10;;;;;;5032322;28;20052;-80
2023/06/28 15:00:12;;;;;;;9.52;6.18;;;35.90;86.90;;;;;;5029205;28;20049;-80
2023/06/28 15:03:16;;;;;;;9.68;6.63;;;36.00;85.70;;;;;;5030759;28;20049;-79
2023/06/28 15:06:20;;;;;;;7.57;6.28;;;35.90;85.80;;;;;;5040938;28;20037;-78
2023/06/28 15:09:24;;;;;;;7.72;6.15;;;35.80;85.70;;;;;;5032296;28;20049;-77
2023/06/28 15:12:28;;;;;;;8.43;6.38;;;35.60;87.10;;;;;;5032774;28;20388;-78
2023/06/28 15:15:33;;;;;;;7.03;5.88;;;35.50;87.40;;;;;;5034435;28;20056;-78
2023/06/28 15:18:36;;;;;;;8.77;6.00;;;35.30;88.50;;;;;;5033164;28;20048;-78
2023/06/28 15:21:40;;;;;;;8.23;5.47;;;35.00;88.70;;;;;;5032751;28;20117;-77
2023/06/28 15:24:44;;;;;;;7.55;5.47;;;34.60;89.50;;;;;;5033018;28;20056;-78
2023/06/28 15:27:48;;;;;;;9.88;6.47;;;34.40;90.00;;;;;;5032626;28;20047;-78
2023/06/28 15:30:52;;;;;;;8.45;5.90;;;34.40;89.20;;;;;;5031846;28;20044;-78
2023/06/28 15:33:56;;;;;;;8.45;5.65;;;34.20;90.40;;;;;;5032518;28;20049;-78
2023/06/28 15:37:00;;;;;;;7.68;5.93;;;34.00;90.30;;;;;;5031603;28;20062;-77
2023/06/28 15:40:05;;;;;;;7.47;6.03;;;33.80;90.20;;;;;;5032391;28;20045;-78
2023/06/28 15:43:09;;;;;;;10.57;5.95;;;33.60;90.50;;;;;;5032357;28;20041;-76
2023/06/28 15:46:13;;;;;;;8.63;6.13;;;33.50;90.80;;;;;;5032561;28;20045;-77
2023/06/28 15:49:18;;;;;;;7.93;6.50;;;33.50;91.20;;;;;;5032397;28;20064;-77
2023/06/28 15:52:22;;;;;;;8.57;6.40;;;33.50;90.80;;;;;;5031542;28;20041;-78